Dallas, TX

23:01 CDT le 20 septembre 2014 (GMT -0500)
Bryan Parkway | Change Station
CLOSE
Current Station
Stations météorologiques personnelles
Location: Dallas, TX
Altitude: 525 ft
Stations météo à proximité

Alt. 525 ft 32.81 °N, 96.76 °W | Updated 3 seconds ago

Ciel dégagé
Ciel dégagé
78.3 ° F
Paraît 80 ° F
N
0.0
Vent Variable Vent de Nord
Gusts 0.0 mph

Aujourd'hui
Haut(e) -- | Bas -- ° F
--% Risque de précip.
Hier
Haut(e) -- | Bas -- ° F
Precip. -- pouce
7:14 AM 7:26 PM
Lune descendante, 9% visible
Pression 29.99 pouce
Visibilité 10.0 Miles terrestres
Nuages Ciel dégagé
indice de chaleur 80 ° F
Point de rosée 63 ° F
Humidité 60%
Précipitations 0.05 pouce
Profondeur de la couche neigeuse Non disponible.
UV 0 sur 12
Pollen 10.70 sur 12
Ozone Bon
PM2.5 Bon
Flu Activity Non disponible.
METAR KDAL 210353Z 13005KT 10SM CLR 27/17 A3001 RMK AO2 SLP156 T02720167

More Conditions Fewer Conditions

Pression 29.99 pouce
Visibilité 10.0 Miles terrestres
Nuages Ciel dégagé
indice de chaleur 80 ° F
Point de rosée 63 ° F
Humidité 60%
Précipitations 0.05 pouce
Profondeur de la couche neigeuse Non disponible.
UV 0 sur 12
Pollen 10.70 sur 12
Ozone Bon
PM2.5 Bon
Flu Activity Non disponible.
METAR KDAL 210353Z 13005KT 10SM CLR 27/17 A3001 RMK AO2 SLP156 T02720167

More Conditions Fewer Conditions

10-Day Weather Forecast

Almanac

Astronomie

Sep. 20, 2014 Lever Coucher
Temps réel 07:14 CDT 19:26 CDT
Crépuscule civil 06:49 CDT 19:51 CDT
Crépuscule nautique 06:20 CDT 20:19 CDT
Crépuscule astronomique 05:51 CDT 20:48 CDT
Lune 04:03 CDT (9/20) 17:23 CDT (9/20)
Durée de lumière visible 13h 01m
Longueur du jour
12h 12m
Tomorrow will be 2m 1s shorter.
Lune descendante, 9% of the Moon is Illuminated
Sep 21
Lune descendante
Sep 24
Nouveau
Oct 1
Premier quartier
Oct 8
Pleine lune
Oct 15
Dernier quartier

Extrêmes aujourd'hui

State Highs State Lows

Community

WunderPhotos

Upload Photos

1,755,084 Photos téléchargées !

Nearby

Qualité de l'air

  Qualité de l'air Indice de la qualité de l'air Polluant
Hier Bon
PM2.5
Hier Bon
OZONE
Actuel Bon
PM2.5
Actuel Bon
OZONE
samedi Bon
OZONE
samedi Bon
PM10
dimanche Moyen
OZONE
dimanche Bon
PM10
lundi Moyen
OZONE
lundi Bon
PM10
mardi Moyen
OZONE
mardi Bon
PM10

Épaisseur de neige

Station Depth Altitude
Pas de nouvelles chutes de neige

Activité sismique

Ville Distance Mag. Time & Date
No recent earthquake activity has been reported nearby.
Minimum magnitude displayed is 2.5.

Températures des eaux côtières

Lieu Température
Aucun rapport de station

Stations météo à proximité